sensor_id;sensor_type;location;lat;lon;timestamp;temperature;humidity
22966;DHT22;11649;48.090;9.754;2022-11-15T00:00:56;6.60;99.90
22966;DHT22;11649;48.090;9.754;2022-11-15T00:03:25;6.60;99.90
22966;DHT22;11649;48.090;9.754;2022-11-15T00:05:52;6.70;99.90
22966;DHT22;11649;48.090;9.754;2022-11-15T00:08:19;6.70;99.90
22966;DHT22;11649;48.090;9.754;2022-11-15T00:11:00;6.70;99.90
22966;DHT22;11649;48.090;9.754;2022-11-15T00:13:27;6.80;99.90
22966;DHT22;11649;48.090;9.754;2022-11-15T00:15:59;6.70;99.90
22966;DHT22;11649;48.090;9.754;2022-11-15T00:18:27;6.60;99.90
22966;DHT22;11649;48.090;9.754;2022-11-15T00:20:55;6.60;99.90
22966;DHT22;11649;48.090;9.754;2022-11-15T00:23:21;6.40;99.90
22966;DHT22;11649;48.090;9.754;2022-11-15T00:25:55;6.30;99.90
22966;DHT22;11649;48.090;9.754;2022-11-15T00:28:23;6.30;99.90
22966;DHT22;11649;48.090;9.754;2022-11-15T00:30:50;6.30;99.90
22966;DHT22;11649;48.090;9.754;2022-11-15T00:33:17;6.40;99.90
22966;DHT22;11649;48.090;9.754;2022-11-15T00:35:44;6.40;99.90
22966;DHT22;11649;48.090;9.754;2022-11-15T00:38:11;6.50;99.90
22966;DHT22;11649;48.090;9.754;2022-11-15T00:40:37;6.40;99.90
22966;DHT22;11649;48.090;9.754;2022-11-15T00:43:04;6.50;99.90
22966;DHT22;11649;48.090;9.754;2022-11-15T00:45:31;6.50;99.90
22966;DHT22;11649;48.090;9.754;2022-11-15T00:47:57;6.60;99.90
22966;DHT22;11649;48.090;9.754;2022-11-15T00:50:24;6.60;99.90
22966;DHT22;11649;48.090;9.754;2022-11-15T00:52:51;6.60;99.90
22966;DHT22;11649;48.090;9.754;2022-11-15T00:55:18;6.60;99.90
22966;DHT22;11649;48.090;9.754;2022-11-15T00:57:46;6.40;99.90
22966;DHT22;11649;48.090;9.754;2022-11-15T01:00:13;6.40;99.90
22966;DHT22;11649;48.090;9.754;2022-11-15T01:02:40;6.40;99.90
22966;DHT22;11649;48.090;9.754;2022-11-15T01:05:08;6.20;99.90
22966;DHT22;11649;48.090;9.754;2022-11-15T01:07:34;6.20;99.90
22966;DHT22;11649;48.090;9.754;2022-11-15T01:10:02;6.20;99.90
22966;DHT22;11649;48.090;9.754;2022-11-15T01:12:29;6.20;99.90
22966;DHT22;11649;48.090;9.754;2022-11-15T01:14:55;6.20;99.90
22966;DHT22;11649;48.090;9.754;2022-11-15T01:17:22;6.30;99.90
22966;DHT22;11649;48.090;9.754;2022-11-15T01:19:49;6.30;99.90
22966;DHT22;11649;48.090;9.754;2022-11-15T01:22:16;6.30;99.90
22966;DHT22;11649;48.090;9.754;2022-11-15T01:24:43;6.40;99.90
22966;DHT22;11649;48.090;9.754;2022-11-15T01:27:10;6.40;99.90
22966;DHT22;11649;48.090;9.754;2022-11-15T01:29:36;6.40;99.90
22966;DHT22;11649;48.090;9.754;2022-11-15T01:32:03;6.40;99.90
22966;DHT22;11649;48.090;9.754;2022-11-15T01:34:30;6.40;99.90
22966;DHT22;11649;48.090;9.754;2022-11-15T01:36:57;6.40;99.90
22966;DHT22;11649;48.090;9.754;2022-11-15T01:39:23;6.20;99.90
22966;DHT22;11649;48.090;9.754;2022-11-15T01:41:50;6.20;99.90
22966;DHT22;11649;48.090;9.754;2022-11-15T01:44:40;6.00;99.90
22966;DHT22;11649;48.090;9.754;2022-11-15T01:47:21;5.80;99.90
22966;DHT22;11649;48.090;9.754;2022-11-15T01:49:59;5.80;99.90
22966;DHT22;11649;48.090;9.754;2022-11-15T01:52:29;5.90;99.90
22966;DHT22;11649;48.090;9.754;2022-11-15T01:58:04;5.90;99.90
22966;DHT22;11649;48.090;9.754;2022-11-15T02:00:31;5.80;99.90
22966;DHT22;11649;48.090;9.754;2022-11-15T02:02:58;5.70;99.90
22966;DHT22;11649;48.090;9.754;2022-11-15T02:05:26;5.80;99.90
22966;DHT22;11649;48.090;9.754;2022-11-15T02:07:53;5.80;99.90
22966;DHT22;11649;48.090;9.754;2022-11-15T02:10:22;5.80;99.90
22966;DHT22;11649;48.090;9.754;2022-11-15T02:12:49;5.70;99.90
22966;DHT22;11649;48.090;9.754;2022-11-15T02:15:17;5.70;99.90
22966;DHT22;11649;48.090;9.754;2022-11-15T02:17:53;5.80;99.90
22966;DHT22;11649;48.090;9.754;2022-11-15T02:20:43;5.90;99.90
22966;DHT22;11649;48.090;9.754;2022-11-15T02:34:46;5.90;99.90
22966;DHT22;11649;48.090;9.754;2022-11-15T02:40:10;5.80;99.90
22966;DHT22;11649;48.090;9.754;2022-11-15T02:42:43;5.70;99.90
22966;DHT22;11649;48.090;9.754;2022-11-15T02:45:39;5.60;99.90
22966;DHT22;11649;48.090;9.754;2022-11-15T02:48:07;5.50;99.90
22966;DHT22;11649;48.090;9.754;2022-11-15T02:50:36;5.50;99.90
22966;DHT22;11649;48.090;9.754;2022-11-15T02:53:03;5.50;99.90
22966;DHT22;11649;48.090;9.754;2022-11-15T02:55:31;5.40;99.90
22966;DHT22;11649;48.090;9.754;2022-11-15T03:06:41;5.20;99.90
22966;DHT22;11649;48.090;9.754;2022-11-15T03:09:35;5.20;99.90
22966;DHT22;11649;48.090;9.754;2022-11-15T03:12:19;5.30;99.90
22966;DHT22;11649;48.090;9.754;2022-11-15T03:14:57;5.30;99.90
22966;DHT22;11649;48.090;9.754;2022-11-15T03:17:28;5.20;99.90
22966;DHT22;11649;48.090;9.754;2022-11-15T03:19:59;5.20;99.90
22966;DHT22;11649;48.090;9.754;2022-11-15T03:22:29;5.20;99.90
22966;DHT22;11649;48.090;9.754;2022-11-15T03:25:03;5.30;99.90
22966;DHT22;11649;48.090;9.754;2022-11-15T03:27:36;5.30;99.90
22966;DHT22;11649;48.090;9.754;2022-11-15T03:30:06;5.30;99.90
22966;DHT22;11649;48.090;9.754;2022-11-15T03:32:48;5.30;99.90
22966;DHT22;11649;48.090;9.754;2022-11-15T03:35:22;5.40;99.90
22966;DHT22;11649;48.090;9.754;2022-11-15T03:40:42;5.50;99.90
22966;DHT22;11649;48.090;9.754;2022-11-15T03:45:50;5.40;99.90
22966;DHT22;11649;48.090;9.754;2022-11-15T03:48:26;5.40;99.90
22966;DHT22;11649;48.090;9.754;2022-11-15T03:50:53;5.40;99.90
22966;DHT22;11649;48.090;9.754;2022-11-15T03:53:21;5.40;99.90
22966;DHT22;11649;48.090;9.754;2022-11-15T03:55:47;5.40;99.90
22966;DHT22;11649;48.090;9.754;2022-11-15T03:58:14;5.60;99.90
22966;DHT22;11649;48.090;9.754;2022-11-15T04:00:41;5.60;99.90
22966;DHT22;11649;48.090;9.754;2022-11-15T04:03:08;5.60;99.90
22966;DHT22;11649;48.090;9.754;2022-11-15T04:05:34;5.50;99.90
22966;DHT22;11649;48.090;9.754;2022-11-15T04:08:01;5.60;99.90
22966;DHT22;11649;48.090;9.754;2022-11-15T04:10:28;5.80;99.90
22966;DHT22;11649;48.090;9.754;2022-11-15T04:12:55;5.70;99.90
22966;DHT22;11649;48.090;9.754;2022-11-15T04:15:23;5.70;99.90
22966;DHT22;11649;48.090;9.754;2022-11-15T04:17:53;5.70;99.90
22966;DHT22;11649;48.090;9.754;2022-11-15T04:20:26;5.70;99.90
22966;DHT22;11649;48.090;9.754;2022-11-15T04:23:17;5.70;99.90
22966;DHT22;11649;48.090;9.754;2022-11-15T04:26:11;5.60;99.90
22966;DHT22;11649;48.090;9.754;2022-11-15T04:28:39;5.70;99.90
22966;DHT22;11649;48.090;9.754;2022-11-15T04:31:26;5.60;99.90
22966;DHT22;11649;48.090;9.754;2022-11-15T04:33:53;5.60;99.90
22966;DHT22;11649;48.090;9.754;2022-11-15T04:36:20;5.70;99.90
22966;DHT22;11649;48.090;9.754;2022-11-15T04:39:06;5.70;99.90
22966;DHT22;11649;48.090;9.754;2022-11-15T04:41:33;5.70;99.90
22966;DHT22;11649;48.090;9.754;2022-11-15T04:43:59;5.80;99.90
22966;DHT22;11649;48.090;9.754;2022-11-15T04:46:27;5.80;99.90
22966;DHT22;11649;48.090;9.754;2022-11-15T04:48:54;5.90;99.90
22966;DHT22;11649;48.090;9.754;2022-11-15T04:51:25;5.80;99.90
22966;DHT22;11649;48.090;9.754;2022-11-15T04:53:51;5.80;99.90
22966;DHT22;11649;48.090;9.754;2022-11-15T04:56:18;5.80;99.90
22966;DHT22;11649;48.090;9.754;2022-11-15T04:58:48;5.70;99.90
22966;DHT22;11649;48.090;9.754;2022-11-15T05:01:15;5.60;99.90
22966;DHT22;11649;48.090;9.754;2022-11-15T05:03:42;5.60;99.90
22966;DHT22;11649;48.090;9.754;2022-11-15T05:06:28;5.70;99.90
22966;DHT22;11649;48.090;9.754;2022-11-15T05:08:55;5.60;99.90
22966;DHT22;11649;48.090;9.754;2022-11-15T05:11:22;5.60;99.90
22966;DHT22;11649;48.090;9.754;2022-11-15T05:13:50;5.80;99.90
22966;DHT22;11649;48.090;9.754;2022-11-15T05:16:16;5.70;99.90
22966;DHT22;11649;48.090;9.754;2022-11-15T05:18:43;5.70;99.90
22966;DHT22;11649;48.090;9.754;2022-11-15T05:21:13;5.70;99.90
22966;DHT22;11649;48.090;9.754;2022-11-15T05:23:41;5.60;99.90
22966;DHT22;11649;48.090;9.754;2022-11-15T05:26:08;5.60;99.90
22966;DHT22;11649;48.090;9.754;2022-11-15T05:28:36;5.60;99.90
22966;DHT22;11649;48.090;9.754;2022-11-15T05:31:05;5.70;99.90
22966;DHT22;11649;48.090;9.754;2022-11-15T05:33:33;5.70;99.90
22966;DHT22;11649;48.090;9.754;2022-11-15T05:36:21;5.70;99.90
22966;DHT22;11649;48.090;9.754;2022-11-15T05:38:53;5.70;99.90
22966;DHT22;11649;48.090;9.754;2022-11-15T05:41:25;5.70;99.90
22966;DHT22;11649;48.090;9.754;2022-11-15T05:43:53;5.40;99.90
22966;DHT22;11649;48.090;9.754;2022-11-15T05:46:20;5.40;99.90
22966;DHT22;11649;48.090;9.754;2022-11-15T05:48:49;5.30;99.90
22966;DHT22;11649;48.090;9.754;2022-11-15T05:51:18;5.20;99.90
22966;DHT22;11649;48.090;9.754;2022-11-15T05:53:47;5.30;99.90
22966;DHT22;11649;48.090;9.754;2022-11-15T05:56:14;5.30;99.90
22966;DHT22;11649;48.090;9.754;2022-11-15T05:58:42;5.40;99.90
22966;DHT22;11649;48.090;9.754;2022-11-15T06:01:09;5.40;99.90
22966;DHT22;11649;48.090;9.754;2022-11-15T06:03:36;5.50;99.90
22966;DHT22;11649;48.090;9.754;2022-11-15T06:06:03;5.50;99.90
22966;DHT22;11649;48.090;9.754;2022-11-15T06:08:30;5.40;99.90
22966;DHT22;11649;48.090;9.754;2022-11-15T06:11:02;5.50;99.90
22966;DHT22;11649;48.090;9.754;2022-11-15T06:13:29;5.50;99.90
22966;DHT22;11649;48.090;9.754;2022-11-15T06:15:56;5.50;99.90
22966;DHT22;11649;48.090;9.754;2022-11-15T06:18:23;5.10;99.90
22966;DHT22;11649;48.090;9.754;2022-11-15T06:20:50;5.00;99.90
22966;DHT22;11649;48.090;9.754;2022-11-15T06:23:17;5.10;99.90
22966;DHT22;11649;48.090;9.754;2022-11-15T06:25:44;5.10;99.90
22966;DHT22;11649;48.090;9.754;2022-11-15T06:28:10;4.90;99.90
22966;DHT22;11649;48.090;9.754;2022-11-15T06:30:37;4.80;99.90
22966;DHT22;11649;48.090;9.754;2022-11-15T06:33:05;4.80;99.90
22966;DHT22;11649;48.090;9.754;2022-11-15T06:35:34;4.90;99.90
22966;DHT22;11649;48.090;9.754;2022-11-15T06:38:06;4.90;99.90
22966;DHT22;11649;48.090;9.754;2022-11-15T06:40:35;4.90;99.90
22966;DHT22;11649;48.090;9.754;2022-11-15T06:43:03;4.90;99.90
22966;DHT22;11649;48.090;9.754;2022-11-15T06:45:31;4.90;99.90
22966;DHT22;11649;48.090;9.754;2022-11-15T06:47:58;5.00;99.90
22966;DHT22;11649;48.090;9.754;2022-11-15T06:50:25;5.10;99.90
22966;DHT22;11649;48.090;9.754;2022-11-15T06:52:52;5.10;99.90
22966;DHT22;11649;48.090;9.754;2022-11-15T06:55:19;5.00;99.90
22966;DHT22;11649;48.090;9.754;2022-11-15T06:57:50;5.00;99.90
22966;DHT22;11649;48.090;9.754;2022-11-15T07:00:18;4.70;99.90
22966;DHT22;11649;48.090;9.754;2022-11-15T07:02:46;4.60;99.90
22966;DHT22;11649;48.090;9.754;2022-11-15T07:05:14;4.60;99.90
22966;DHT22;11649;48.090;9.754;2022-11-15T07:07:41;4.70;99.90
22966;DHT22;11649;48.090;9.754;2022-11-15T07:10:08;4.80;99.90
22966;DHT22;11649;48.090;9.754;2022-11-15T07:12:35;5.00;99.90
22966;DHT22;11649;48.090;9.754;2022-11-15T07:15:02;5.00;99.90
22966;DHT22;11649;48.090;9.754;2022-11-15T07:17:29;5.10;99.90
22966;DHT22;11649;48.090;9.754;2022-11-15T07:19:56;5.00;99.90
22966;DHT22;11649;48.090;9.754;2022-11-15T07:22:22;4.70;99.90
22966;DHT22;11649;48.090;9.754;2022-11-15T07:24:49;4.70;99.90
22966;DHT22;11649;48.090;9.754;2022-11-15T07:27:16;4.60;99.90
22966;DHT22;11649;48.090;9.754;2022-11-15T07:29:43;4.80;99.90
22966;DHT22;11649;48.090;9.754;2022-11-15T07:32:10;4.90;99.90
22966;DHT22;11649;48.090;9.754;2022-11-15T07:34:36;5.00;99.90
22966;DHT22;11649;48.090;9.754;2022-11-15T07:37:03;5.00;99.90
22966;DHT22;11649;48.090;9.754;2022-11-15T07:39:31;5.00;99.90
22966;DHT22;11649;48.090;9.754;2022-11-15T07:41:59;4.90;99.90
22966;DHT22;11649;48.090;9.754;2022-11-15T07:44:44;4.90;99.90
22966;DHT22;11649;48.090;9.754;2022-11-15T07:47:11;4.90;99.90
22966;DHT22;11649;48.090;9.754;2022-11-15T07:49:38;4.90;99.90
22966;DHT22;11649;48.090;9.754;2022-11-15T07:52:04;4.90;99.90
22966;DHT22;11649;48.090;9.754;2022-11-15T07:54:31;5.10;99.90
22966;DHT22;11649;48.090;9.754;2022-11-15T07:56:58;5.20;99.90
22966;DHT22;11649;48.090;9.754;2022-11-15T07:59:32;5.30;99.90
22966;DHT22;11649;48.090;9.754;2022-11-15T08:01:59;5.40;99.90
22966;DHT22;11649;48.090;9.754;2022-11-15T08:04:26;5.40;99.90
22966;DHT22;11649;48.090;9.754;2022-11-15T08:06:53;5.50;99.90
22966;DHT22;11649;48.090;9.754;2022-11-15T08:09:20;5.60;99.90
22966;DHT22;11649;48.090;9.754;2022-11-15T08:11:47;5.60;99.90
22966;DHT22;11649;48.090;9.754;2022-11-15T08:14:13;5.70;99.90
22966;DHT22;11649;48.090;9.754;2022-11-15T08:16:40;5.80;99.90
22966;DHT22;11649;48.090;9.754;2022-11-15T08:19:07;5.80;99.90
22966;DHT22;11649;48.090;9.754;2022-11-15T08:21:34;5.90;99.90
22966;DHT22;11649;48.090;9.754;2022-11-15T08:24:01;5.90;99.90
22966;DHT22;11649;48.090;9.754;2022-11-15T08:26:28;5.80;99.90
22966;DHT22;11649;48.090;9.754;2022-11-15T08:28:56;6.10;99.90
22966;DHT22;11649;48.090;9.754;2022-11-15T08:31:23;6.30;99.90
22966;DHT22;11649;48.090;9.754;2022-11-15T08:33:50;6.50;99.90
22966;DHT22;11649;48.090;9.754;2022-11-15T08:36:17;6.60;99.90
22966;DHT22;11649;48.090;9.754;2022-11-15T08:38:44;7.00;99.90
22966;DHT22;11649;48.090;9.754;2022-11-15T08:41:27;6.90;99.90
22966;DHT22;11649;48.090;9.754;2022-11-15T08:43:54;7.00;99.90
22966;DHT22;11649;48.090;9.754;2022-11-15T08:46:21;7.00;99.90
22966;DHT22;11649;48.090;9.754;2022-11-15T08:48:48;7.00;99.90
22966;DHT22;11649;48.090;9.754;2022-11-15T08:51:15;7.00;99.90
22966;DHT22;11649;48.090;9.754;2022-11-15T08:53:42;7.00;99.90
22966;DHT22;11649;48.090;9.754;2022-11-15T08:56:10;7.10;99.90
22966;DHT22;11649;48.090;9.754;2022-11-15T08:58:38;7.40;99.90
22966;DHT22;11649;48.090;9.754;2022-11-15T09:01:06;7.60;99.90
22966;DHT22;11649;48.090;9.754;2022-11-15T09:03:33;7.80;99.90
22966;DHT22;11649;48.090;9.754;2022-11-15T09:06:00;7.90;99.90
22966;DHT22;11649;48.090;9.754;2022-11-15T09:08:30;8.30;99.90
22966;DHT22;11649;48.090;9.754;2022-11-15T09:11:17;8.50;99.90
22966;DHT22;11649;48.090;9.754;2022-11-15T09:13:46;8.70;99.90
22966;DHT22;11649;48.090;9.754;2022-11-15T09:16:13;8.80;99.90
22966;DHT22;11649;48.090;9.754;2022-11-15T09:18:41;8.80;99.90
22966;DHT22;11649;48.090;9.754;2022-11-15T09:21:09;8.50;99.90
22966;DHT22;11649;48.090;9.754;2022-11-15T09:23:36;8.40;99.90
22966;DHT22;11649;48.090;9.754;2022-11-15T09:26:04;8.60;99.90
22966;DHT22;11649;48.090;9.754;2022-11-15T09:28:32;8.80;99.90
22966;DHT22;11649;48.090;9.754;2022-11-15T09:31:02;9.00;99.90
22966;DHT22;11649;48.090;9.754;2022-11-15T09:33:29;9.00;99.90
22966;DHT22;11649;48.090;9.754;2022-11-15T09:36:02;9.10;99.90
22966;DHT22;11649;48.090;9.754;2022-11-15T09:38:30;8.90;99.90
22966;DHT22;11649;48.090;9.754;2022-11-15T09:46:49;9.10;99.90
22966;DHT22;11649;48.090;9.754;2022-11-15T09:49:18;9.30;99.90
22966;DHT22;11649;48.090;9.754;2022-11-15T09:51:48;9.50;99.90
22966;DHT22;11649;48.090;9.754;2022-11-15T09:57:14;9.40;99.90
22966;DHT22;11649;48.090;9.754;2022-11-15T10:02:58;9.30;99.90
22966;DHT22;11649;48.090;9.754;2022-11-15T10:05:29;9.40;99.90
22966;DHT22;11649;48.090;9.754;2022-11-15T10:11:17;9.30;99.90
22966;DHT22;11649;48.090;9.754;2022-11-15T10:14:12;9.20;99.90
22966;DHT22;11649;48.090;9.754;2022-11-15T10:16:55;9.40;99.90
22966;DHT22;11649;48.090;9.754;2022-11-15T10:22:21;9.50;99.90
22966;DHT22;11649;48.090;9.754;2022-11-15T10:24:58;9.90;99.90
22966;DHT22;11649;48.090;9.754;2022-11-15T10:27:26;10.30;99.90
22966;DHT22;11649;48.090;9.754;2022-11-15T10:29:53;10.40;99.90
22966;DHT22;11649;48.090;9.754;2022-11-15T10:32:21;10.70;99.90
22966;DHT22;11649;48.090;9.754;2022-11-15T10:34:49;10.80;99.90
22966;DHT22;11649;48.090;9.754;2022-11-15T10:37:28;10.70;99.90
22966;DHT22;11649;48.090;9.754;2022-11-15T10:40:21;11.00;99.90
22966;DHT22;11649;48.090;9.754;2022-11-15T10:45:36;11.40;99.90
22966;DHT22;11649;48.090;9.754;2022-11-15T10:50:43;11.70;99.90
22966;DHT22;11649;48.090;9.754;2022-11-15T10:53:33;11.80;99.90
22966;DHT22;11649;48.090;9.754;2022-11-15T10:56:11;11.70;99.90
22966;DHT22;11649;48.090;9.754;2022-11-15T10:58:43;11.60;99.90
22966;DHT22;11649;48.090;9.754;2022-11-15T11:01:23;11.60;99.90
22966;DHT22;11649;48.090;9.754;2022-11-15T11:04:04;11.60;99.90
22966;DHT22;11649;48.090;9.754;2022-11-15T11:06:55;11.60;99.90
22966;DHT22;11649;48.090;9.754;2022-11-15T11:11:56;11.70;99.90
22966;DHT22;11649;48.090;9.754;2022-11-15T11:14:31;11.90;99.90
22966;DHT22;11649;48.090;9.754;2022-11-15T11:20:00;12.50;99.90
22966;DHT22;11649;48.090;9.754;2022-11-15T11:25:37;13.00;99.90
22966;DHT22;11649;48.090;9.754;2022-11-15T11:36:32;12.60;99.90
22966;DHT22;11649;48.090;9.754;2022-11-15T11:47:24;12.60;99.90
22966;DHT22;11649;48.090;9.754;2022-11-15T11:49:54;12.80;99.90
22966;DHT22;11649;48.090;9.754;2022-11-15T11:52:26;12.80;99.90
22966;DHT22;11649;48.090;9.754;2022-11-15T11:55:10;12.80;99.90
22966;DHT22;11649;48.090;9.754;2022-11-15T11:58:04;12.60;99.90
22966;DHT22;11649;48.090;9.754;2022-11-15T12:00:34;12.50;99.90
22966;DHT22;11649;48.090;9.754;2022-11-15T12:03:28;12.50;99.90
22966;DHT22;11649;48.090;9.754;2022-11-15T12:06:02;12.40;99.90
22966;DHT22;11649;48.090;9.754;2022-11-15T12:08:40;12.40;99.90
22966;DHT22;11649;48.090;9.754;2022-11-15T12:11:27;12.40;99.90
22966;DHT22;11649;48.090;9.754;2022-11-15T12:14:11;12.30;99.90
22966;DHT22;11649;48.090;9.754;2022-11-15T12:16:41;12.30;99.90
22966;DHT22;11649;48.090;9.754;2022-11-15T12:19:08;12.30;99.90
22966;DHT22;11649;48.090;9.754;2022-11-15T12:27:05;12.40;99.90
22966;DHT22;11649;48.090;9.754;2022-11-15T12:32:05;12.30;99.90
22966;DHT22;11649;48.090;9.754;2022-11-15T12:34:43;12.50;99.90
22966;DHT22;11649;48.090;9.754;2022-11-15T12:37:33;12.60;99.90
22966;DHT22;11649;48.090;9.754;2022-11-15T12:40:16;12.60;99.90
22966;DHT22;11649;48.090;9.754;2022-11-15T12:45:44;12.50;99.90
22966;DHT22;11649;48.090;9.754;2022-11-15T12:58:44;12.80;99.90
22966;DHT22;11649;48.090;9.754;2022-11-15T13:06:56;12.90;99.90
22966;DHT22;11649;48.090;9.754;2022-11-15T13:12:09;12.90;99.90
22966;DHT22;11649;48.090;9.754;2022-11-15T13:17:27;12.80;99.90
22966;DHT22;11649;48.090;9.754;2022-11-15T13:28:10;12.50;99.90
22966;DHT22;11649;48.090;9.754;2022-11-15T13:30:37;12.50;99.90
22966;DHT22;11649;48.090;9.754;2022-11-15T13:33:36;12.50;99.90
22966;DHT22;11649;48.090;9.754;2022-11-15T13:36:06;12.40;99.90
22966;DHT22;11649;48.090;9.754;2022-11-15T13:38:36;12.40;99.90
22966;DHT22;11649;48.090;9.754;2022-11-15T13:41:24;12.40;99.90
22966;DHT22;11649;48.090;9.754;2022-11-15T13:43:53;12.40;99.90
22966;DHT22;11649;48.090;9.754;2022-11-15T13:46:24;12.40;99.90
22966;DHT22;11649;48.090;9.754;2022-11-15T13:49:00;12.40;99.90
22966;DHT22;11649;48.090;9.754;2022-11-15T13:54:07;12.40;99.90
22966;DHT22;11649;48.090;9.754;2022-11-15T13:56:36;12.30;99.90
22966;DHT22;11649;48.090;9.754;2022-11-15T14:00:03;12.20;99.90
22966;DHT22;11649;48.090;9.754;2022-11-15T14:02:32;12.30;99.90
22966;DHT22;11649;48.090;9.754;2022-11-15T14:05:19;12.10;99.90
22966;DHT22;11649;48.090;9.754;2022-11-15T14:07:56;12.20;99.90
22966;DHT22;11649;48.090;9.754;2022-11-15T14:10:34;12.10;99.90
22966;DHT22;11649;48.090;9.754;2022-11-15T14:13:03;11.90;99.90
22966;DHT22;11649;48.090;9.754;2022-11-15T14:15:35;11.80;99.90
22966;DHT22;11649;48.090;9.754;2022-11-15T14:18:03;11.90;99.90
22966;DHT22;11649;48.090;9.754;2022-11-15T14:20:33;12.00;99.90
22966;DHT22;11649;48.090;9.754;2022-11-15T14:23:25;12.00;99.90
22966;DHT22;11649;48.090;9.754;2022-11-15T14:25:53;12.10;99.90
22966;DHT22;11649;48.090;9.754;2022-11-15T14:30:54;12.30;99.90
22966;DHT22;11649;48.090;9.754;2022-11-15T14:33:36;12.20;99.90
22966;DHT22;11649;48.090;9.754;2022-11-15T14:36:13;12.20;99.90
22966;DHT22;11649;48.090;9.754;2022-11-15T14:38:40;12.00;99.90
22966;DHT22;11649;48.090;9.754;2022-11-15T14:41:27;11.80;99.90
22966;DHT22;11649;48.090;9.754;2022-11-15T14:43:54;11.90;99.90
22966;DHT22;11649;48.090;9.754;2022-11-15T14:46:21;11.80;99.90
22966;DHT22;11649;48.090;9.754;2022-11-15T14:48:48;11.70;99.90
22966;DHT22;11649;48.090;9.754;2022-11-15T14:51:21;11.70;99.90
22966;DHT22;11649;48.090;9.754;2022-11-15T14:53:48;11.60;99.90
22966;DHT22;11649;48.090;9.754;2022-11-15T14:56:15;11.60;99.90
22966;DHT22;11649;48.090;9.754;2022-11-15T14:58:43;11.50;99.90
22966;DHT22;11649;48.090;9.754;2022-11-15T15:01:20;11.60;99.90
22966;DHT22;11649;48.090;9.754;2022-11-15T15:03:48;11.60;99.90
22966;DHT22;11649;48.090;9.754;2022-11-15T15:06:15;11.60;99.90
22966;DHT22;11649;48.090;9.754;2022-11-15T15:08:45;11.60;99.90
22966;DHT22;11649;48.090;9.754;2022-11-15T15:11:24;11.50;99.90
22966;DHT22;11649;48.090;9.754;2022-11-15T15:13:52;11.50;99.90
22966;DHT22;11649;48.090;9.754;2022-11-15T15:16:19;11.50;99.90
22966;DHT22;11649;48.090;9.754;2022-11-15T15:18:46;11.60;99.90
22966;DHT22;11649;48.090;9.754;2022-11-15T15:21:24;11.60;99.90
22966;DHT22;11649;48.090;9.754;2022-11-15T15:23:56;11.50;99.90
22966;DHT22;11649;48.090;9.754;2022-11-15T15:26:24;11.50;99.90
22966;DHT22;11649;48.090;9.754;2022-11-15T15:28:51;11.50;99.90
22966;DHT22;11649;48.090;9.754;2022-11-15T15:31:18;11.40;99.90
22966;DHT22;11649;48.090;9.754;2022-11-15T15:33:45;11.40;99.90
22966;DHT22;11649;48.090;9.754;2022-11-15T15:36:13;11.40;99.90
22966;DHT22;11649;48.090;9.754;2022-11-15T15:38:40;11.30;99.90
22966;DHT22;11649;48.090;9.754;2022-11-15T15:41:12;11.20;99.90
22966;DHT22;11649;48.090;9.754;2022-11-15T15:43:39;11.20;99.90
22966;DHT22;11649;48.090;9.754;2022-11-15T15:46:17;11.10;99.90
22966;DHT22;11649;48.090;9.754;2022-11-15T15:48:45;10.90;99.90
22966;DHT22;11649;48.090;9.754;2022-11-15T15:51:12;10.90;99.90
22966;DHT22;11649;48.090;9.754;2022-11-15T15:53:47;10.90;99.90
22966;DHT22;11649;48.090;9.754;2022-11-15T15:56:14;10.90;99.90
22966;DHT22;11649;48.090;9.754;2022-11-15T15:58:41;11.30;99.90
22966;DHT22;11649;48.090;9.754;2022-11-15T16:01:07;11.00;99.90
22966;DHT22;11649;48.090;9.754;2022-11-15T16:03:34;11.00;99.90
22966;DHT22;11649;48.090;9.754;2022-11-15T16:06:01;11.00;99.90
22966;DHT22;11649;48.090;9.754;2022-11-15T16:08:30;10.90;99.90
22966;DHT22;11649;48.090;9.754;2022-11-15T16:11:17;10.90;99.90
22966;DHT22;11649;48.090;9.754;2022-11-15T16:13:44;10.90;99.90
22966;DHT22;11649;48.090;9.754;2022-11-15T16:16:13;10.70;99.90
22966;DHT22;11649;48.090;9.754;2022-11-15T16:18:41;10.50;99.90
22966;DHT22;11649;48.090;9.754;2022-11-15T16:21:12;10.50;99.90
22966;DHT22;11649;48.090;9.754;2022-11-15T16:23:38;10.40;99.90
22966;DHT22;11649;48.090;9.754;2022-11-15T16:26:35;10.40;99.90
22966;DHT22;11649;48.090;9.754;2022-11-15T16:29:03;10.30;99.90
22966;DHT22;11649;48.090;9.754;2022-11-15T16:31:30;10.30;99.90
22966;DHT22;11649;48.090;9.754;2022-11-15T16:33:56;10.30;99.90
22966;DHT22;11649;48.090;9.754;2022-11-15T16:36:25;10.20;99.90
22966;DHT22;11649;48.090;9.754;2022-11-15T16:38:57;10.20;99.90
22966;DHT22;11649;48.090;9.754;2022-11-15T16:41:24;10.20;99.90
22966;DHT22;11649;48.090;9.754;2022-11-15T16:43:51;10.10;99.90
22966;DHT22;11649;48.090;9.754;2022-11-15T16:46:20;10.10;99.90
22966;DHT22;11649;48.090;9.754;2022-11-15T16:48:48;10.00;99.90
22966;DHT22;11649;48.090;9.754;2022-11-15T16:51:16;10.00;99.90
22966;DHT22;11649;48.090;9.754;2022-11-15T16:53:43;10.40;99.90
22966;DHT22;11649;48.090;9.754;2022-11-15T16:56:25;10.00;99.90
22966;DHT22;11649;48.090;9.754;2022-11-15T16:58:53;9.90;99.90
22966;DHT22;11649;48.090;9.754;2022-11-15T17:01:27;9.90;99.90
22966;DHT22;11649;48.090;9.754;2022-11-15T17:03:54;9.80;99.90
22966;DHT22;11649;48.090;9.754;2022-11-15T17:06:22;9.80;99.90
22966;DHT22;11649;48.090;9.754;2022-11-15T17:08:49;9.80;99.90
22966;DHT22;11649;48.090;9.754;2022-11-15T17:11:18;9.70;99.90
22966;DHT22;11649;48.090;9.754;2022-11-15T17:13:45;9.80;99.90
22966;DHT22;11649;48.090;9.754;2022-11-15T17:16:14;9.70;99.90
22966;DHT22;11649;48.090;9.754;2022-11-15T17:18:42;9.80;99.90
22966;DHT22;11649;48.090;9.754;2022-11-15T17:21:13;9.70;99.90
22966;DHT22;11649;48.090;9.754;2022-11-15T17:23:41;9.70;99.90
22966;DHT22;11649;48.090;9.754;2022-11-15T17:26:09;9.70;99.90
22966;DHT22;11649;48.090;9.754;2022-11-15T17:28:55;9.70;99.90
22966;DHT22;11649;48.090;9.754;2022-11-15T17:31:22;9.70;99.90
22966;DHT22;11649;48.090;9.754;2022-11-15T17:33:50;9.70;99.90
22966;DHT22;11649;48.090;9.754;2022-11-15T17:36:17;9.60;99.90
22966;DHT22;11649;48.090;9.754;2022-11-15T17:38:44;9.80;99.90
22966;DHT22;11649;48.090;9.754;2022-11-15T17:41:15;9.80;99.90
22966;DHT22;11649;48.090;9.754;2022-11-15T17:43:43;9.80;99.90
22966;DHT22;11649;48.090;9.754;2022-11-15T17:46:17;9.80;99.90
22966;DHT22;11649;48.090;9.754;2022-11-15T17:48:45;9.80;99.90
22966;DHT22;11649;48.090;9.754;2022-11-15T17:51:14;9.80;99.90
22966;DHT22;11649;48.090;9.754;2022-11-15T17:53:43;9.90;99.90
22966;DHT22;11649;48.090;9.754;2022-11-15T17:56:15;9.80;99.90
22966;DHT22;11649;48.090;9.754;2022-11-15T17:58:51;9.80;99.90
22966;DHT22;11649;48.090;9.754;2022-11-15T18:01:29;9.70;99.90
22966;DHT22;11649;48.090;9.754;2022-11-15T18:03:57;9.80;99.90
22966;DHT22;11649;48.090;9.754;2022-11-15T18:06:28;9.70;99.90
22966;DHT22;11649;48.090;9.754;2022-11-15T18:08:56;9.70;99.90